Atqasuk, Alaska
Current Conditions -  °F | °C
As of 8:56 AM on Thursday 27 Nov 2014 (Local Time) from PATQ Reporting Station
Clear Clear  
Wind Chill: -32°   Ceiling: Unl
Heat Index: -21°   Visibility: 10mi
Dew Point: -23°   Wind: 14mph
Humidity: 83%   Direction: 110°ESE
Pressure: 30.26"   Gusts: NA
Location:  70.47°N, 157.4°W
Report Text: PATQ 271756Z AUTO 11012KT 10SM CLR M21/M23 A3026 RMK AO2 TSNO 56018 T12051227 11205 21244 SLP255 $
Loading
Personal Weather Stations






























Interactive Weather Map New forecast layout! Learn more

10-Day Weather Forecast

Advertisements
Track Severe Weather on mobile